Portada
METAR-TAF:

METAR-TAF

Aeroports :

Djanet, Algèria

latitud: 24-33N, longitud: 009-28E, altitud: 1054 m

Observació

L'informe es va fer fa 29 minuts, a les 10:00 UTC
Vent 10 kt del Sud
Temperatura 37°C
Humitat 11%
Pressió 1018 hPa
Visibilitat: 8000 m

METAR: DAAJ 051000Z 19010KT 8000 NSC 37/02 Q1018

Hora: 11:29 (10:29 UTC)

Pronòstic

L'informe es va fer fa 5 hores i 29 minuts, a les 05:00 UTC
Pronòstic vàlid del 05 a les 06 UTC al 06 a les 06 UTC
Vent 8 kt del Oest
Visibilitat: 6000 m
Escasses núvols a una alçada de 4600 ft
Evolucionant progressivament
l' 05 a les 07 UTC al 05 a les 11 UTC
Vent 10 kt del Sud
Probabilitat 40% :
Temporalment
l' 05 a les 14 UTC al 05 a les 20 UTC
Escasses núvols a una alçada de 4000 ft, Cumulonimbus.

TAF: DAAJ 050500Z 0506/0606 28008KT 6000 FEW046 BECMG 0507/0511 18010KT PROB40 TEMPO 0514/0520 FEW040CB

Observacions i pronòstics meteorològics de més de 4000 aeroports (METAR i TAF).

Les estacions disponibles són els punts grocs i vermells al mapa.

Posi el ratolí al punt desitjat per veure el nom de l'estació.

Feu clic per veure les observacions i els pronòstics meteorològics.

Per canviar el mapa: feu clic els botons verds amb una creu de color negre per apropar; al botó verd amb un guió per allunyar la imatge; o en les fletxes verdes per a mapes adjacents.


METAR-TAF: